Time;durP1;ratioP1;P1;durP2;ratioP2;P2;SDS_P1;SDS_P2;PMS_P1;PMS_P2;Temp;Humidity;BMP_temperature;BMP_pressure;BME280_temperature;BME280_humidity;BME280_pressure;Samples;Min_cycle;Max_cycle;Signal;HPM_P1;HPM_P2
2023/03/25 00:01:16;;;;;;;6.05;1.30;;;;;;;;;;4974609;28;92856;-79
2023/03/25 00:03:49;;;;;;;6.97;1.27;;;;;;;;;;4960248;28;92645;-81
2023/03/25 00:06:15;;;;;;;6.20;1.30;;;;;;;;;;4954454;28;92531;-79
2023/03/25 00:08:42;;;;;;;3.40;1.00;;;;;;;;;;4955375;28;94762;-80
2023/03/25 00:11:08;;;;;;;5.85;1.20;;;;;;;;;;4950852;28;92071;-79
2023/03/25 00:13:35;;;;;;;7.78;1.67;;;;;;;;;;4945422;28;92345;-80
2023/03/25 00:16:03;;;;;;;7.65;1.38;;;;;;;;;;4951370;28;94910;-79
2023/03/25 00:18:32;;;;;;;5.30;1.40;;;;;;;;;;4960054;28;95838;-79
2023/03/25 00:21:03;;;;;;;5.18;0.82;;;;;;;;;;4967916;28;93573;-79
2023/03/25 00:23:30;;;;;;;4.78;1.20;;;;;;;;;;4944770;28;93018;-79
2023/03/25 00:26:00;;;;;;;6.10;1.35;;;;;;;;;;4958073;28;93356;-78
2023/03/25 00:28:27;;;;;;;4.95;1.10;;;;;;;;;;4957390;28;92922;-79
2023/03/25 00:30:54;;;;;;;6.60;1.10;;;;;;;;;;4957433;28;92484;-80
2023/03/25 00:33:21;;;;;;;6.35;1.30;;;;;;;;;;4959682;28;92300;-79
2023/03/25 00:35:51;;;;;;;4.72;1.17;;;;;;;;;;4982946;28;98961;-79
2023/03/25 00:38:18;;;;;;;4.15;1.10;;;;;;;;;;4985708;28;92338;-79
2023/03/25 00:40:45;;;;;;;6.15;1.10;;;;;;;;;;4974965;28;95403;-79
2023/03/25 00:43:13;;;;;;;4.68;1.15;;;;;;;;;;4978828;28;92313;-79
2023/03/25 00:45:39;;;;;;;;;;;;;;;;;;4976947;28;93562;-79
2023/03/25 00:48:06;;;;;;;4.55;1.20;;;;;;;;;;5009079;28;108838;-79
2023/03/25 00:50:32;;;;;;;5.68;1.20;;;;;;;;;;4986464;28;92567;-80
2023/03/25 00:53:00;;;;;;;4.40;0.98;;;;;;;;;;4962556;28;92921;-78
2023/03/25 00:55:26;;;;;;;4.45;1.10;;;;;;;;;;4956611;28;92700;-77
2023/03/25 00:57:52;;;;;;;4.63;1.00;;;;;;;;;;5011091;28;91901;-79
2023/03/25 01:00:19;;;;;;;5.75;1.30;;;;;;;;;;4958075;28;92732;-79
2023/03/25 01:02:47;;;;;;;4.95;1.10;;;;;;;;;;4958324;28;92415;-79
2023/03/25 01:05:15;;;;;;;17.10;2.00;;;;;;;;;;4972139;28;95067;-79
2023/03/25 01:07:42;;;;;;;10.85;1.40;;;;;;;;;;4959253;28;92667;-78
2023/03/25 01:10:10;;;;;;;7.25;1.70;;;;;;;;;;4959662;28;92024;-79
2023/03/25 01:12:36;;;;;;;6.95;1.42;;;;;;;;;;4959054;28;92431;-78
2023/03/25 01:15:03;;;;;;;6.43;1.40;;;;;;;;;;4959320;28;93161;-78
2023/03/25 01:17:30;;;;;;;9.32;1.45;;;;;;;;;;4958495;28;92692;-79
2023/03/25 01:19:56;;;;;;;6.82;1.20;;;;;;;;;;4962398;28;94077;-80
2023/03/25 01:22:23;;;;;;;6.50;1.33;;;;;;;;;;4991302;28;91652;-78
2023/03/25 01:24:49;;;;;;;4.88;1.23;;;;;;;;;;4958673;28;92449;-79
2023/03/25 01:27:16;;;;;;;8.80;1.42;;;;;;;;;;4958883;28;92425;-80
2023/03/25 01:29:42;;;;;;;7.10;1.40;;;;;;;;;;4957803;28;94593;-79
2023/03/25 01:32:08;;;;;;;5.07;1.30;;;;;;;;;;4969579;28;97090;-79
2023/03/25 01:34:37;;;;;;;8.30;1.63;;;;;;;;;;4991053;28;92776;-79
2023/03/25 01:37:05;;;;;;;7.20;1.30;;;;;;;;;;4957515;28;92666;-79
2023/03/25 01:39:31;;;;;;;6.68;1.30;;;;;;;;;;4956738;28;93085;-78
2023/03/25 01:41:58;;;;;;;13.45;1.60;;;;;;;;;;4961238;28;94416;-79
2023/03/25 01:44:25;;;;;;;6.05;1.40;;;;;;;;;;4973779;28;94701;-79
2023/03/25 01:46:52;;;;;;;8.15;1.70;;;;;;;;;;4974549;28;91954;-78
2023/03/25 01:49:25;;;;;;;9.85;1.40;;;;;;;;;;4958934;28;92363;-79
2023/03/25 01:51:55;;;;;;;9.93;1.63;;;;;;;;;;4952999;28;96715;-79
2023/03/25 01:54:21;;;;;;;5.00;1.30;;;;;;;;;;4958754;28;95027;-79
2023/03/25 01:56:48;;;;;;;5.28;1.40;;;;;;;;;;4964434;28;92681;-79
2023/03/25 01:59:17;;;;;;;6.78;1.33;;;;;;;;;;4975952;28;92581;-79
2023/03/25 02:01:45;;;;;;;5.35;1.15;;;;;;;;;;4980261;28;93112;-79
2023/03/25 02:04:12;;;;;;;5.57;1.50;;;;;;;;;;4985050;28;92053;-78
2023/03/25 02:06:47;;;;;;;5.93;1.55;;;;;;;;;;4985241;28;92606;-78
2023/03/25 02:09:15;;;;;;;5.53;1.20;;;;;;;;;;4982647;28;92241;-78
2023/03/25 02:11:43;;;;;;;6.35;1.25;;;;;;;;;;4987789;28;92507;-79
2023/03/25 02:14:15;;;;;;;6.60;1.40;;;;;;;;;;4979981;28;93970;-78
2023/03/25 02:16:56;;;;;;;6.35;1.20;;;;;;;;;;4986954;28;93445;-78
2023/03/25 02:19:31;;;;;;;8.18;1.30;;;;;;;;;;4966644;28;94737;-78
2023/03/25 02:22:04;;;;;;;6.07;1.55;;;;;;;;;;4989027;28;92664;-78
2023/03/25 02:24:52;;;;;;;6.05;1.30;;;;;;;;;;4969946;28;92639;-77
2023/03/25 02:27:40;;;;;;;6.53;1.50;;;;;;;;;;4979006;28;95131;-78
2023/03/25 02:30:13;;;;;;;5.63;1.35;;;;;;;;;;4968185;28;93279;-78
2023/03/25 02:32:58;;;;;;;7.18;1.40;;;;;;;;;;4962040;28;93293;-78
2023/03/25 02:35:24;;;;;;;5.80;1.40;;;;;;;;;;4958999;28;92673;-78
2023/03/25 02:37:57;;;;;;;6.78;1.40;;;;;;;;;;4961279;28;91595;-78
2023/03/25 02:40:26;;;;;;;7.57;1.38;;;;;;;;;;4960016;28;93979;-78
2023/03/25 02:43:11;;;;;;;6.43;1.60;;;;;;;;;;4961429;28;92682;-79
2023/03/25 02:45:45;;;;;;;6.07;1.10;;;;;;;;;;4957990;28;94975;-78
2023/03/25 02:48:30;;;;;;;8.00;1.48;;;;;;;;;;4962823;28;98292;-79
2023/03/25 02:50:58;;;;;;;8.65;1.50;;;;;;;;;;4992341;28;92540;-78
2023/03/25 02:53:26;;;;;;;6.05;1.55;;;;;;;;;;4959192;28;94829;-78
2023/03/25 02:55:56;;;;;;;7.43;1.20;;;;;;;;;;4959511;28;92850;-79
2023/03/25 02:58:23;;;;;;;7.90;1.50;;;;;;;;;;4953660;28;92179;-80
2023/03/25 03:00:50;;;;;;;6.07;1.50;;;;;;;;;;4961541;28;92635;-80
2023/03/25 03:03:17;;;;;;;7.45;1.52;;;;;;;;;;4960525;28;92027;-78
2023/03/25 03:05:45;;;;;;;7.50;1.73;;;;;;;;;;4982607;28;92297;-77
2023/03/25 03:08:30;;;;;;;5.40;1.58;;;;;;;;;;4975933;28;92887;-79
2023/03/25 03:10:57;;;;;;;7.95;1.58;;;;;;;;;;4960314;28;96139;-78
2023/03/25 03:13:26;;;;;;;6.35;1.52;;;;;;;;;;4960814;28;95652;-78
2023/03/25 03:16:05;;;;;;;6.97;1.40;;;;;;;;;;4960525;28;92895;-79
2023/03/25 03:18:43;;;;;;;4.25;1.30;;;;;;;;;;4960049;28;92428;-78
2023/03/25 03:21:15;;;;;;;7.13;1.52;;;;;;;;;;4958968;28;94202;-79
2023/03/25 03:24:01;;;;;;;5.97;1.50;;;;;;;;;;4955909;28;93961;-79
2023/03/25 03:26:47;;;;;;;7.18;1.40;;;;;;;;;;4960584;28;92817;-79
2023/03/25 03:29:13;;;;;;;5.82;1.20;;;;;;;;;;4961716;28;92789;-78
2023/03/25 03:31:42;;;;;;;7.47;1.50;;;;;;;;;;4959374;28;92506;-78
2023/03/25 03:34:48;;;;;;;5.80;1.33;;;;;;;;;;4963888;28;92294;-78
2023/03/25 03:37:17;;;;;;;7.05;1.40;;;;;;;;;;4970224;28;95569;-79
2023/03/25 03:39:44;;;;;;;7.20;1.50;;;;;;;;;;4960147;28;92218;-79
2023/03/25 03:42:25;;;;;;;5.80;1.40;;;;;;;;;;4958768;28;92512;-79
2023/03/25 03:44:53;;;;;;;5.80;1.38;;;;;;;;;;4992171;28;94448;-79
2023/03/25 03:47:25;;;;;;;8.35;1.45;;;;;;;;;;4960174;28;92912;-79
2023/03/25 03:49:55;;;;;;;4.60;1.25;;;;;;;;;;4960544;28;97559;-79
2023/03/25 03:52:29;;;;;;;9.02;1.52;;;;;;;;;;4960162;28;93014;-79
2023/03/25 03:54:55;;;;;;;;;;;;;;;;;;4962743;28;91965;-77
2023/03/25 03:57:25;;;;;;;6.20;1.60;;;;;;;;;;4963239;28;121129;-78
2023/03/25 03:59:56;;;;;;;8.48;1.88;;;;;;;;;;4959451;28;92719;-78
2023/03/25 04:02:23;;;;;;;8.57;1.65;;;;;;;;;;4946111;28;94636;-78
2023/03/25 04:04:52;;;;;;;7.72;1.73;;;;;;;;;;4960002;28;92561;-79
2023/03/25 04:07:26;;;;;;;8.32;1.77;;;;;;;;;;4973531;28;92519;-79
2023/03/25 04:09:55;;;;;;;8.43;1.60;;;;;;;;;;4958762;28;97881;-80
2023/03/25 04:12:26;;;;;;;9.35;1.38;;;;;;;;;;4959582;28;93196;-79
2023/03/25 04:14:54;;;;;;;5.13;1.40;;;;;;;;;;4960105;28;92222;-79
2023/03/25 04:17:21;;;;;;;7.30;1.70;;;;;;;;;;4955695;28;92492;-79
2023/03/25 04:19:47;;;;;;;9.55;1.80;;;;;;;;;;4953725;28;99246;-79
2023/03/25 04:22:16;;;;;;;6.40;1.35;;;;;;;;;;4979989;28;92206;-79
2023/03/25 04:24:42;;;;;;;7.55;1.70;;;;;;;;;;4979098;28;92589;-78
2023/03/25 04:27:12;;;;;;;10.15;1.77;;;;;;;;;;4964488;28;94823;-78
2023/03/25 04:29:42;;;;;;;9.98;2.08;;;;;;;;;;4963842;28;95390;-78
2023/03/25 04:32:12;;;;;;;7.00;1.70;;;;;;;;;;4979252;28;93045;-78
2023/03/25 04:34:39;;;;;;;9.02;1.60;;;;;;;;;;4979238;28;92408;-78
2023/03/25 04:37:05;;;;;;;8.77;1.60;;;;;;;;;;4977396;28;92387;-78
2023/03/25 04:39:31;;;;;;;10.15;1.90;;;;;;;;;;4981739;28;93422;-79
2023/03/25 04:42:02;;;;;;;7.30;2.00;;;;;;;;;;4994743;28;92576;-79
2023/03/25 04:44:32;;;;;;;9.90;1.60;;;;;;;;;;4979605;28;92014;-78
2023/03/25 04:46:59;;;;;;;6.47;1.50;;;;;;;;;;5010268;28;92257;-79
2023/03/25 04:49:25;;;;;;;6.90;1.67;;;;;;;;;;4978392;28;92663;-79
2023/03/25 04:51:52;;;;;;;7.25;1.52;;;;;;;;;;4969010;28;95750;-79
2023/03/25 04:54:20;;;;;;;7.00;1.58;;;;;;;;;;4993151;28;92447;-78
2023/03/25 04:56:48;;;;;;;6.40;1.52;;;;;;;;;;4978625;28;92777;-78
2023/03/25 04:59:15;;;;;;;6.47;1.58;;;;;;;;;;4978635;28;92464;-78
2023/03/25 05:01:44;;;;;;;6.45;1.38;;;;;;;;;;4970375;28;92476;-78
2023/03/25 05:04:12;;;;;;;7.75;1.55;;;;;;;;;;4967282;28;92675;-78
2023/03/25 05:06:41;;;;;;;8.55;1.83;;;;;;;;;;4978967;28;92190;-78
2023/03/25 05:09:09;;;;;;;7.53;1.65;;;;;;;;;;4965798;28;92659;-78
2023/03/25 05:11:38;;;;;;;11.07;1.90;;;;;;;;;;4977673;28;92812;-78
2023/03/25 05:14:05;;;;;;;5.18;1.65;;;;;;;;;;4979120;28;92449;-78
2023/03/25 05:16:32;;;;;;;9.90;1.58;;;;;;;;;;4974517;28;96176;-77
2023/03/25 05:18:58;;;;;;;8.43;1.67;;;;;;;;;;4978675;28;93492;-78
2023/03/25 05:21:26;;;;;;;7.55;1.60;;;;;;;;;;4969719;28;92058;-78
2023/03/25 05:23:52;;;;;;;7.78;1.50;;;;;;;;;;4975054;28;92424;-77
2023/03/25 05:26:19;;;;;;;10.50;1.65;;;;;;;;;;4976923;28;93426;-77
2023/03/25 05:28:50;;;;;;;6.53;1.50;;;;;;;;;;4982048;28;92473;-78
2023/03/25 05:31:17;;;;;;;6.47;1.40;;;;;;;;;;4981294;28;93511;-79
2023/03/25 05:33:43;;;;;;;6.18;1.25;;;;;;;;;;4982241;28;91874;-79
2023/03/25 05:36:11;;;;;;;9.63;1.60;;;;;;;;;;4996916;28;92366;-78
2023/03/25 05:38:40;;;;;;;7.57;1.77;;;;;;;;;;4981737;28;93094;-78
2023/03/25 05:41:09;;;;;;;8.43;1.88;;;;;;;;;;4995268;28;94660;-79
2023/03/25 05:43:36;;;;;;;7.75;2.17;;;;;;;;;;4975062;28;94747;-78
2023/03/25 05:46:04;;;;;;;6.05;1.20;;;;;;;;;;4979670;28;92970;-78
2023/03/25 05:48:31;;;;;;;7.65;1.65;;;;;;;;;;4980958;28;92787;-78
2023/03/25 05:51:02;;;;;;;7.38;1.48;;;;;;;;;;4980887;28;92769;-79
2023/03/25 05:53:29;;;;;;;8.27;1.88;;;;;;;;;;4978998;28;92399;-79
2023/03/25 05:55:56;;;;;;;7.25;1.77;;;;;;;;;;4980823;28;93235;-80
2023/03/25 05:58:24;;;;;;;6.82;1.40;;;;;;;;;;4974698;28;92979;-78
2023/03/25 06:00:50;;;;;;;9.82;1.52;;;;;;;;;;4980802;28;92184;-78
2023/03/25 06:03:17;;;;;;;7.35;1.25;;;;;;;;;;4981151;28;93186;-78
2023/03/25 06:05:44;;;;;;;7.57;1.67;;;;;;;;;;4978738;28;96318;-78
2023/03/25 06:08:10;;;;;;;6.40;1.50;;;;;;;;;;4984807;28;92672;-78
2023/03/25 06:10:37;;;;;;;8.07;1.58;;;;;;;;;;4980735;28;93768;-78
2023/03/25 06:13:04;;;;;;;6.72;1.35;;;;;;;;;;4975711;28;92432;-79
2023/03/25 06:15:37;;;;;;;9.85;1.60;;;;;;;;;;4979892;28;92432;-79
2023/03/25 06:18:04;;;;;;;9.15;1.80;;;;;;;;;;4980837;28;92640;-80
2023/03/25 06:20:32;;;;;;;7.90;1.67;;;;;;;;;;4979315;28;92142;-79
2023/03/25 06:23:00;;;;;;;8.43;1.60;;;;;;;;;;4981823;28;92507;-78
2023/03/25 06:25:27;;;;;;;10.20;1.83;;;;;;;;;;4995619;28;95476;-78
2023/03/25 06:27:54;;;;;;;6.35;1.70;;;;;;;;;;4981494;28;92403;-78
2023/03/25 06:30:21;;;;;;;10.85;2.53;;;;;;;;;;4981000;28;95094;-79
2023/03/25 06:32:49;;;;;;;7.47;1.58;;;;;;;;;;4981417;28;92360;-80
2023/03/25 06:35:18;;;;;;;8.73;1.52;;;;;;;;;;4980835;28;92651;-78
2023/03/25 06:37:46;;;;;;;9.20;1.75;;;;;;;;;;4979675;28;92836;-79
2023/03/25 06:40:19;;;;;;;9.82;1.95;;;;;;;;;;4979903;28;92057;-79
2023/03/25 06:42:45;;;;;;;8.63;1.73;;;;;;;;;;5013593;28;95406;-79
2023/03/25 06:45:35;;;;;;;6.75;1.42;;;;;;;;;;4979455;28;94201;-79
2023/03/25 06:48:10;;;;;;;7.80;2.00;;;;;;;;;;4979425;28;91872;-78
2023/03/25 06:50:36;;;;;;;10.52;1.75;;;;;;;;;;4983203;28;92316;-79
2023/03/25 06:53:02;;;;;;;7.50;1.90;;;;;;;;;;4980977;28;92295;-79
2023/03/25 06:55:29;;;;;;;8.93;1.60;;;;;;;;;;4976628;28;94698;-78
2023/03/25 06:57:56;;;;;;;6.40;1.50;;;;;;;;;;4980624;28;92787;-79
2023/03/25 07:00:23;;;;;;;8.75;1.42;;;;;;;;;;4980257;28;92088;-79
2023/03/25 07:02:50;;;;;;;;;;;;;;;;;;4981233;28;92830;-79
2023/03/25 07:05:16;;;;;;;7.28;1.60;;;;;;;;;;4999051;28;106156;-78
2023/03/25 07:07:43;;;;;;;9.68;1.83;;;;;;;;;;4978404;28;92166;-77
2023/03/25 07:10:13;;;;;;;8.90;1.70;;;;;;;;;;4974521;28;93116;-78
2023/03/25 07:12:39;;;;;;;7.82;1.70;;;;;;;;;;4983432;28;92955;-78
2023/03/25 07:15:06;;;;;;;5.40;1.55;;;;;;;;;;4978830;28;94701;-78
2023/03/25 07:17:34;;;;;;;7.35;1.48;;;;;;;;;;4977835;28;92809;-77
2023/03/25 07:20:01;;;;;;;9.18;1.70;;;;;;;;;;4978133;28;95055;-77
2023/03/25 07:22:27;;;;;;;8.60;1.60;;;;;;;;;;4974417;28;94785;-77
2023/03/25 07:24:54;;;;;;;5.63;1.50;;;;;;;;;;5012045;28;93018;-78
2023/03/25 07:27:20;;;;;;;6.93;1.40;;;;;;;;;;4979511;28;92159;-77
2023/03/25 07:29:56;;;;;;;7.28;1.58;;;;;;;;;;5011743;28;96774;-79
2023/03/25 07:32:22;;;;;;;6.80;1.45;;;;;;;;;;4980071;28;93944;-78
2023/03/25 07:34:49;;;;;;;10.55;1.63;;;;;;;;;;4982975;28;92413;-77
2023/03/25 07:37:16;;;;;;;9.23;1.80;;;;;;;;;;4978194;28;92403;-78
2023/03/25 07:39:42;;;;;;;8.55;1.50;;;;;;;;;;4978061;28;92658;-78
2023/03/25 07:42:09;;;;;;;8.85;1.67;;;;;;;;;;4979952;28;92532;-78
2023/03/25 07:44:54;;;;;;;7.13;1.70;;;;;;;;;;4977407;28;96217;-78
2023/03/25 07:47:21;;;;;;;8.98;1.50;;;;;;;;;;4978122;28;92540;-78
2023/03/25 07:49:48;;;;;;;10.15;1.67;;;;;;;;;;4979266;28;96838;-79
2023/03/25 07:52:15;;;;;;;8.60;1.70;;;;;;;;;;4968083;28;92710;-79
2023/03/25 07:54:43;;;;;;;7.43;1.48;;;;;;;;;;4977770;28;92534;-78
2023/03/25 07:57:09;;;;;;;6.13;1.40;;;;;;;;;;4982438;28;92651;-78
2023/03/25 07:59:36;;;;;;;6.80;1.50;;;;;;;;;;4977807;28;92120;-80
2023/03/25 08:02:02;;;;;;;9.10;1.50;;;;;;;;;;4980207;28;92484;-80
2023/03/25 08:04:29;;;;;;;9.77;1.67;;;;;;;;;;4994445;28;95541;-79
2023/03/25 08:06:55;;;;;;;10.75;1.77;;;;;;;;;;4979046;28;92097;-78
2023/03/25 08:09:23;;;;;;;9.73;1.67;;;;;;;;;;4977129;28;95124;-78
2023/03/25 08:11:50;;;;;;;6.40;1.42;;;;;;;;;;4977846;28;95617;-79
2023/03/25 08:14:16;;;;;;;8.82;1.40;;;;;;;;;;4988777;28;92599;-79
2023/03/25 08:16:43;;;;;;;7.57;1.55;;;;;;;;;;4971913;28;93277;-79
2023/03/25 08:19:10;;;;;;;7.57;1.40;;;;;;;;;;4980560;28;92983;-80
2023/03/25 08:21:36;;;;;;;9.25;1.42;;;;;;;;;;4993231;28;93739;-82
2023/03/25 08:24:03;;;;;;;9.25;1.50;;;;;;;;;;4979784;28;92770;-78
2023/03/25 08:26:32;;;;;;;6.93;1.63;;;;;;;;;;4978300;28;91437;-78
2023/03/25 08:29:01;;;;;;;4.78;1.27;;;;;;;;;;4979594;28;92396;-79
2023/03/25 08:31:29;;;;;;;8.98;1.45;;;;;;;;;;4978665;28;92700;-79
2023/03/25 08:33:57;;;;;;;9.60;1.75;;;;;;;;;;4964070;28;94861;-79
2023/03/25 08:36:24;;;;;;;8.48;1.90;;;;;;;;;;4979491;28;95895;-78
2023/03/25 08:38:50;;;;;;;5.18;1.35;;;;;;;;;;4994085;28;95500;-80
2023/03/25 08:41:17;;;;;;;6.60;1.50;;;;;;;;;;4977284;28;92476;-80
2023/03/25 08:43:44;;;;;;;5.57;1.30;;;;;;;;;;4989246;28;92875;-79
2023/03/25 08:46:10;;;;;;;8.70;1.90;;;;;;;;;;4976856;28;92422;-80
2023/03/25 08:48:37;;;;;;;7.72;1.50;;;;;;;;;;4971908;28;92262;-79
2023/03/25 08:51:05;;;;;;;15.25;1.80;;;;;;;;;;4979269;28;92031;-81
2023/03/25 08:53:31;;;;;;;11.45;1.80;;;;;;;;;;4972863;28;92226;-82
2023/03/25 08:55:57;;;;;;;10.65;1.60;;;;;;;;;;4980387;28;92456;-82
2023/03/25 08:58:25;;;;;;;8.60;1.70;;;;;;;;;;4977695;28;97443;-82
2023/03/25 09:00:54;;;;;;;27.08;2.53;;;;;;;;;;4979101;28;92397;-83
2023/03/25 09:03:21;;;;;;;10.73;1.77;;;;;;;;;;4970531;28;93313;-84
2023/03/25 09:05:48;;;;;;;9.95;1.70;;;;;;;;;;4990464;28;92222;-84
2023/03/25 09:08:15;;;;;;;8.18;1.58;;;;;;;;;;4978711;28;92891;-84
2023/03/25 09:10:42;;;;;;;6.00;1.50;;;;;;;;;;4995299;28;95156;-83
2023/03/25 09:13:08;;;;;;;9.07;1.90;;;;;;;;;;4995623;28;92419;-83
2023/03/25 09:15:35;;;;;;;7.82;1.70;;;;;;;;;;4965851;28;93058;-82
2023/03/25 09:18:01;;;;;;;6.60;1.75;;;;;;;;;;4968978;28;92501;-81
2023/03/25 09:20:28;;;;;;;8.23;1.70;;;;;;;;;;4971640;28;92426;-83
2023/03/25 09:22:54;;;;;;;10.40;1.80;;;;;;;;;;4968916;28;94879;-83
2023/03/25 09:25:21;;;;;;;9.35;2.00;;;;;;;;;;4959493;28;92734;-83
2023/03/25 09:27:47;;;;;;;6.63;1.70;;;;;;;;;;4977292;28;96404;-83
2023/03/25 09:30:17;;;;;;;7.13;1.65;;;;;;;;;;4980879;28;93160;-83
2023/03/25 09:32:44;;;;;;;9.13;1.70;;;;;;;;;;4970098;28;92218;-83
2023/03/25 09:35:10;;;;;;;5.75;1.40;;;;;;;;;;4975182;28;92239;-83
2023/03/25 09:37:37;;;;;;;6.13;1.55;;;;;;;;;;4994046;28;95285;-83
2023/03/25 09:40:04;;;;;;;13.25;2.85;;;;;;;;;;4980271;28;92685;-81
2023/03/25 09:42:47;;;;;;;11.20;2.35;;;;;;;;;;4977333;28;92625;-80
2023/03/25 09:45:25;;;;;;;12.98;1.85;;;;;;;;;;4981668;28;93107;-79
2023/03/25 09:48:18;;;;;;;12.65;2.08;;;;;;;;;;4975475;28;97127;-79
2023/03/25 09:50:45;;;;;;;13.80;2.17;;;;;;;;;;4975485;28;93610;-82
2023/03/25 09:53:23;;;;;;;45.25;2.97;;;;;;;;;;4978891;28;92460;-78
2023/03/25 09:55:50;;;;;;;12.52;1.90;;;;;;;;;;4978870;28;96658;-79
2023/03/25 09:58:25;;;;;;;16.25;2.20;;;;;;;;;;4969398;28;92260;-79
2023/03/25 10:01:14;;;;;;;12.98;2.03;;;;;;;;;;4977079;28;92167;-80
2023/03/25 10:04:01;;;;;;;16.50;2.60;;;;;;;;;;4978302;28;92639;-80
2023/03/25 10:06:29;;;;;;;17.00;2.47;;;;;;;;;;4947757;28;94346;-79
2023/03/25 10:09:22;;;;;;;16.60;2.20;;;;;;;;;;4980684;28;92161;-81
2023/03/25 10:11:56;;;;;;;17.48;2.20;;;;;;;;;;4954718;28;97136;-82
2023/03/25 10:14:29;;;;;;;20.60;2.45;;;;;;;;;;4972096;28;94834;-79
2023/03/25 10:17:01;;;;;;;14.82;2.20;;;;;;;;;;4997123;28;94741;-79
2023/03/25 10:19:37;;;;;;;12.70;2.13;;;;;;;;;;4981694;28;93056;-79
2023/03/25 10:22:05;;;;;;;12.82;2.05;;;;;;;;;;4997315;28;92593;-80
2023/03/25 10:24:31;;;;;;;12.98;2.00;;;;;;;;;;4979647;28;92879;-79
2023/03/25 10:27:05;;;;;;;18.90;2.13;;;;;;;;;;4982516;28;93173;-79
2023/03/25 10:29:38;;;;;;;12.40;1.83;;;;;;;;;;4979935;28;93068;-80
2023/03/25 10:32:06;;;;;;;10.43;1.80;;;;;;;;;;4985637;28;92484;-78
2023/03/25 10:34:41;;;;;;;16.27;2.13;;;;;;;;;;4981055;28;92505;-80
2023/03/25 10:37:11;;;;;;;14.35;2.10;;;;;;;;;;4980302;28;92938;-78
2023/03/25 10:39:42;;;;;;;11.50;1.92;;;;;;;;;;4989204;28;95366;-80
2023/03/25 10:42:19;;;;;;;9.88;1.80;;;;;;;;;;4980932;28;92667;-80
2023/03/25 10:44:46;;;;;;;8.93;1.80;;;;;;;;;;4979602;28;92317;-78
2023/03/25 10:47:15;;;;;;;7.88;1.50;;;;;;;;;;4980227;28;92709;-80
2023/03/25 10:49:42;;;;;;;12.25;2.08;;;;;;;;;;4977522;28;92755;-79
2023/03/25 10:52:09;;;;;;;16.35;2.17;;;;;;;;;;4983498;28;92408;-81
2023/03/25 10:54:38;;;;;;;22.77;2.90;;;;;;;;;;4980642;28;92401;-80
2023/03/25 10:57:07;;;;;;;12.27;1.83;;;;;;;;;;4980466;28;92438;-78
2023/03/25 10:59:44;;;;;;;19.48;2.20;;;;;;;;;;4978041;28;92578;-79
2023/03/25 11:02:24;;;;;;;18.52;2.10;;;;;;;;;;4979715;28;92209;-79
2023/03/25 11:04:52;;;;;;;12.05;1.60;;;;;;;;;;4978389;28;96100;-80
2023/03/25 11:07:21;;;;;;;16.63;1.58;;;;;;;;;;4980744;28;92579;-82
2023/03/25 11:09:47;;;;;;;12.85;1.52;;;;;;;;;;4980057;28;92288;-85
2023/03/25 11:12:17;;;;;;;9.77;1.45;;;;;;;;;;5012510;28;92590;-80
2023/03/25 11:14:43;;;;;;;20.63;1.80;;;;;;;;;;4983161;28;93560;-80
2023/03/25 11:17:17;;;;;;;7.43;1.40;;;;;;;;;;4978793;28;93467;-80
2023/03/25 11:19:52;;;;;;;14.23;1.80;;;;;;;;;;4989398;28;94588;-80
2023/03/25 11:22:24;;;;;;;12.30;1.73;;;;;;;;;;4992259;28;91708;-79
2023/03/25 11:24:56;;;;;;;12.52;1.95;;;;;;;;;;4980085;28;92466;-79
2023/03/25 11:27:24;;;;;;;5.68;1.40;;;;;;;;;;4979676;28;94019;-78
2023/03/25 11:30:02;;;;;;;9.35;1.60;;;;;;;;;;4978692;28;94511;-80
2023/03/25 11:32:32;;;;;;;6.50;1.38;;;;;;;;;;4979131;28;97255;-81
2023/03/25 11:35:00;;;;;;;10.00;1.60;;;;;;;;;;4964258;28;92280;-80
2023/03/25 11:37:29;;;;;;;6.03;1.42;;;;;;;;;;4972473;28;92251;-80
2023/03/25 11:40:02;;;;;;;7.97;1.52;;;;;;;;;;4979985;28;93102;-79
2023/03/25 11:42:34;;;;;;;10.18;2.00;;;;;;;;;;4980399;28;92448;-80
2023/03/25 11:45:02;;;;;;;10.65;2.40;;;;;;;;;;4964985;28;93977;-80
2023/03/25 11:47:30;;;;;;;21.83;2.13;;;;;;;;;;4962183;28;93632;-80
2023/03/25 11:49:56;;;;;;;11.13;2.40;;;;;;;;;;4966382;28;92379;-80
2023/03/25 11:52:24;;;;;;;9.82;2.00;;;;;;;;;;4978827;28;94740;-79
2023/03/25 11:54:56;;;;;;;11.60;2.25;;;;;;;;;;4978376;28;95229;-80
2023/03/25 11:57:25;;;;;;;9.55;1.75;;;;;;;;;;4978981;28;92379;-81
2023/03/25 11:59:59;;;;;;;12.82;2.25;;;;;;;;;;4977783;28;93427;-82
2023/03/25 12:02:28;;;;;;;9.98;1.92;;;;;;;;;;4978874;28;92481;-81
2023/03/25 12:04:56;;;;;;;11.50;2.08;;;;;;;;;;4982430;28;95112;-81
2023/03/25 12:07:23;;;;;;;8.25;1.77;;;;;;;;;;5010982;28;94867;-80
2023/03/25 12:09:57;;;;;;;10.13;2.30;;;;;;;;;;4973693;28;92192;-83
2023/03/25 12:12:45;;;;;;;9.98;1.83;;;;;;;;;;4976029;28;94884;-82
2023/03/25 12:15:18;;;;;;;9.32;1.75;;;;;;;;;;4968112;28;92950;-81
2023/03/25 12:17:50;;;;;;;8.23;1.60;;;;;;;;;;4970504;28;92282;-79
2023/03/25 12:20:34;;;;;;;13.13;2.28;;;;;;;;;;4973358;28;101486;-80
2023/03/25 12:23:01;;;;;;;18.35;1.80;;;;;;;;;;5007990;28;94733;-81
2023/03/25 12:25:33;;;;;;;16.00;2.17;;;;;;;;;;4979661;28;93493;-80
2023/03/25 12:28:13;;;;;;;13.00;2.65;;;;;;;;;;4979114;28;92737;-82
2023/03/25 12:30:49;;;;;;;12.52;2.20;;;;;;;;;;4979989;28;92034;-80
2023/03/25 12:33:22;;;;;;;11.13;2.10;;;;;;;;;;5012867;28;94816;-81
2023/03/25 12:35:51;;;;;;;10.00;2.08;;;;;;;;;;4974779;28;97421;-80
2023/03/25 12:38:27;;;;;;;10.73;2.00;;;;;;;;;;4981476;28;91626;-81
2023/03/25 12:40:56;;;;;;;10.73;1.70;;;;;;;;;;4985217;28;92076;-80
2023/03/25 12:43:35;;;;;;;10.68;2.15;;;;;;;;;;4976834;28;95305;-81
2023/03/25 12:46:10;;;;;;;18.35;2.30;;;;;;;;;;4978932;28;95002;-82
2023/03/25 12:48:36;;;;;;;12.75;2.05;;;;;;;;;;4978812;28;93038;-81
2023/03/25 12:51:11;;;;;;;10.50;1.95;;;;;;;;;;4979347;28;92677;-81
2023/03/25 12:53:58;;;;;;;12.50;1.83;;;;;;;;;;4979387;28;93399;-80
2023/03/25 12:56:43;;;;;;;10.88;1.80;;;;;;;;;;4978670;28;92953;-80
2023/03/25 12:59:32;;;;;;;8.18;1.80;;;;;;;;;;4977416;28;92849;-79
2023/03/25 13:02:08;;;;;;;10.10;1.85;;;;;;;;;;4970919;28;96577;-79
2023/03/25 13:04:56;;;;;;;10.52;1.98;;;;;;;;;;5005610;28;94574;-79
2023/03/25 13:07:30;;;;;;;8.55;1.80;;;;;;;;;;4980204;28;92637;-79
2023/03/25 13:10:04;;;;;;;21.10;10.05;;;;;;;;;;4977515;28;94086;-80
2023/03/25 13:12:38;;;;;;;36.40;17.83;;;;;;;;;;4975661;28;94780;-82
2023/03/25 13:15:22;;;;;;;29.58;14.70;;;;;;;;;;5005616;28;94313;-80
2023/03/25 13:18:02;;;;;;;32.95;17.05;;;;;;;;;;4964655;28;98430;-82
2023/03/25 13:20:32;;;;;;;36.00;18.55;;;;;;;;;;4976361;28;92611;-80
2023/03/25 13:23:00;;;;;;;32.75;17.52;;;;;;;;;;4977497;28;92523;-80
2023/03/25 13:26:07;;;;;;;29.83;14.55;;;;;;;;;;4976163;28;93953;-80
2023/03/25 13:28:45;;;;;;;31.25;16.80;;;;;;;;;;4903360;28;92802;-80
2023/03/25 13:31:16;;;;;;;30.92;15.82;;;;;;;;;;4936537;28;93758;-81
2023/03/25 13:34:12;;;;;;;26.08;13.85;;;;;;;;;;4948043;28;92895;-80
2023/03/25 13:36:41;;;;;;;29.02;14.38;;;;;;;;;;4969819;28;92456;-80
2023/03/25 13:39:21;;;;;;;24.15;12.65;;;;;;;;;;4976480;28;96507;-78
2023/03/25 13:41:55;;;;;;;24.60;13.80;;;;;;;;;;4966578;28;94121;-79
2023/03/25 13:44:32;;;;;;;24.50;13.68;;;;;;;;;;4988765;28;95036;-82
2023/03/25 13:47:14;;;;;;;24.40;12.63;;;;;;;;;;4958063;28;93697;-81
2023/03/25 13:49:42;;;;;;;28.25;11.07;;;;;;;;;;4960098;28;92059;-81
2023/03/25 13:52:09;;;;;;;26.33;11.00;;;;;;;;;;4960267;28;92518;-80
2023/03/25 13:54:41;;;;;;;21.70;11.05;;;;;;;;;;4966330;28;92641;-81
2023/03/25 13:57:14;;;;;;;25.35;9.90;;;;;;;;;;4970634;28;91562;-81
2023/03/25 13:59:41;;;;;;;21.48;9.25;;;;;;;;;;4966036;28;92966;-80
2023/03/25 14:02:30;;;;;;;20.45;8.73;;;;;;;;;;4976053;28;92149;-80
2023/03/25 14:05:03;;;;;;;20.95;10.30;;;;;;;;;;4968666;28;95614;-80
2023/03/25 14:07:54;;;;;;;17.63;9.68;;;;;;;;;;4979712;28;92521;-80
2023/03/25 14:10:20;;;;;;;20.13;9.80;;;;;;;;;;4964497;28;92058;-81
2023/03/25 14:12:50;;;;;;;20.38;9.45;;;;;;;;;;4981062;28;92493;-81
2023/03/25 14:15:21;;;;;;;18.05;9.27;;;;;;;;;;4981494;28;93188;-80
2023/03/25 14:17:49;;;;;;;18.85;8.82;;;;;;;;;;4983909;28;93065;-81
2023/03/25 14:20:19;;;;;;;17.83;8.23;;;;;;;;;;4983394;28;92173;-83
2023/03/25 14:22:47;;;;;;;20.48;9.10;;;;;;;;;;4981302;28;91786;-79
2023/03/25 14:25:13;;;;;;;;;;;;;;;;;;4981725;28;93207;-79
2023/03/25 14:27:40;;;;;;;15.90;7.85;;;;;;;;;;4979167;28;117650;-80
2023/03/25 14:30:17;;;;;;;14.45;7.80;;;;;;;;;;4979257;28;94861;-79
2023/03/25 14:32:44;;;;;;;14.20;6.50;;;;;;;;;;4966110;28;95166;-81
2023/03/25 14:35:35;;;;;;;12.45;6.40;;;;;;;;;;4996521;28;92515;-81
2023/03/25 14:38:05;;;;;;;12.30;6.60;;;;;;;;;;4967663;28;92573;-80
2023/03/25 14:40:37;;;;;;;13.77;6.57;;;;;;;;;;4991321;28;95186;-79
2023/03/25 14:43:22;;;;;;;12.90;6.20;;;;;;;;;;4969600;28;92760;-80
2023/03/25 14:46:09;;;;;;;15.77;6.45;;;;;;;;;;4982448;28;97949;-79
2023/03/25 14:48:43;;;;;;;13.50;5.15;;;;;;;;;;4962526;28;92072;-82
2023/03/25 14:51:26;;;;;;;11.50;6.00;;;;;;;;;;4976233;28;92308;-81
2023/03/25 14:54:03;;;;;;;14.20;6.75;;;;;;;;;;4969648;28;99825;-82
2023/03/25 14:56:52;;;;;;;13.65;6.03;;;;;;;;;;4978564;28;96153;-82
2023/03/25 14:59:22;;;;;;;12.45;5.75;;;;;;;;;;4971854;28;92380;-81